createdAt,value
2022-10-23T00:04:44.959Z,5.28
2022-10-23T00:09:46.607Z,5.22
2022-10-23T00:14:48.221Z,4.60
2022-10-23T00:19:50.536Z,5.00
2022-10-23T00:24:52.510Z,4.75
2022-10-23T00:29:54.579Z,5.32
2022-10-23T00:34:56.511Z,5.00
2022-10-23T00:39:58.376Z,4.80
2022-10-23T00:45:26.707Z,4.72
2022-10-23T00:55:34.019Z,4.90
2022-10-23T01:00:55.914Z,4.82
2022-10-23T01:06:10.102Z,4.47
2022-10-23T01:11:37.123Z,4.53
2022-10-23T01:17:06.073Z,4.43
2022-10-23T01:27:39.538Z,4.03
2022-10-23T01:32:53.334Z,4.25
2022-10-23T01:38:06.477Z,4.25
2022-10-23T01:43:17.598Z,4.30
2022-10-23T01:48:25.153Z,4.35
2022-10-23T01:53:31.243Z,4.30
2022-10-23T01:58:36.519Z,5.00
2022-10-23T02:03:41.404Z,5.35
2022-10-23T02:08:43.532Z,4.75
2022-10-23T02:13:56.221Z,5.18
2022-10-23T02:19:08.684Z,5.05
2022-10-23T02:24:16.680Z,5.40
2022-10-23T02:29:57.158Z,5.45
2022-10-23T02:35:01.475Z,4.90
2022-10-23T02:40:04.345Z,5.70
2022-10-23T02:45:33.045Z,6.00
2022-10-23T02:50:39.597Z,5.90
2022-10-23T02:55:57.006Z,6.35
2022-10-23T03:01:11.480Z,6.25
2022-10-23T03:06:33.292Z,5.50
2022-10-23T03:11:35.484Z,6.15
2022-10-23T03:16:38.026Z,5.80
2022-10-23T03:21:39.695Z,5.60
2022-10-23T03:26:43.613Z,6.28
2022-10-23T03:31:45.462Z,6.43
2022-10-23T03:36:48.035Z,6.55
2022-10-23T03:41:50.078Z,6.78
2022-10-23T03:46:52.497Z,7.20
2022-10-23T03:51:55.752Z,7.03
2022-10-23T03:56:58.194Z,6.25
2022-10-23T04:02:01.105Z,6.40
2022-10-23T04:07:04.018Z,6.22
2022-10-23T04:12:07.771Z,6.25
2022-10-23T04:17:09.408Z,6.78
2022-10-23T04:22:11.094Z,6.90
2022-10-23T04:27:14.320Z,6.88
2022-10-23T04:32:16.778Z,6.03
2022-10-23T04:37:19.790Z,7.13
2022-10-23T04:42:21.496Z,6.15
2022-10-23T04:47:23.523Z,6.55
2022-10-23T04:52:33.082Z,6.07
2022-10-23T04:57:56.018Z,6.07
2022-10-23T05:03:00.216Z,5.63
2022-10-23T05:08:11.564Z,5.30
2022-10-23T05:13:42.244Z,5.63
2022-10-23T05:18:47.385Z,5.47
2022-10-23T05:23:49.686Z,4.28
2022-10-23T05:28:51.626Z,4.75
2022-10-23T05:33:56.535Z,5.40
2022-10-23T05:38:59.200Z,5.80
2022-10-23T05:44:04.283Z,6.63
2022-10-23T05:49:35.912Z,7.13
2022-10-23T05:54:58.708Z,7.47
2022-10-23T06:00:22.395Z,8.05
2022-10-23T06:05:37.070Z,7.32
2022-10-23T06:11:09.165Z,7.60
2022-10-23T06:16:17.288Z,6.18
2022-10-23T06:21:20.009Z,6.95
2022-10-23T06:26:24.254Z,6.43
2022-10-23T06:31:37.919Z,7.00
2022-10-23T06:36:59.897Z,6.63
2022-10-23T06:42:09.367Z,6.40
2022-10-23T06:47:29.421Z,5.82
2022-10-23T06:53:00.310Z,6.15
2022-10-23T06:58:04.597Z,6.00
2022-10-23T07:03:06.383Z,6.07
2022-10-23T07:08:09.079Z,5.60
2022-10-23T07:13:16.030Z,5.70
2022-10-23T07:18:32.155Z,5.65
2022-10-23T07:23:54.272Z,5.43
2022-10-23T07:28:58.259Z,5.43
2022-10-23T07:34:01.002Z,6.13
2022-10-23T07:39:04.326Z,5.80
2022-10-23T07:44:09.563Z,6.78
2022-10-23T07:49:11.729Z,6.60
2022-10-23T07:54:14.910Z,7.57
2022-10-23T07:59:16.665Z,9.07
2022-10-23T08:04:25.180Z,7.93
2022-10-23T08:09:34.826Z,8.10
2022-10-23T08:14:38.596Z,8.30
2022-10-23T08:19:40.399Z,9.52
2022-10-23T08:24:42.197Z,8.73
2022-10-23T08:29:44.251Z,7.28
2022-10-23T08:34:46.046Z,6.72
2022-10-23T08:39:50.141Z,6.20
2022-10-23T08:45:08.281Z,6.18
2022-10-23T08:50:51.892Z,5.35
2022-10-23T08:55:59.060Z,6.47
2022-10-23T09:01:01.022Z,6.10
2022-10-23T09:06:24.393Z,5.82
2022-10-23T09:11:41.502Z,5.28
2022-10-23T09:16:55.182Z,5.47
2022-10-23T09:21:58.171Z,5.68
2022-10-23T09:27:00.794Z,6.20
2022-10-23T09:32:05.310Z,5.90
2022-10-23T09:37:23.764Z,7.05
2022-10-23T09:47:28.818Z,7.13
2022-10-23T09:52:39.105Z,7.05
2022-10-23T09:57:43.150Z,7.38
2022-10-23T10:03:00.496Z,7.18
2022-10-23T10:08:49.157Z,7.90
2022-10-23T10:14:03.217Z,9.13
2022-10-23T10:19:15.887Z,8.30
2022-10-23T10:24:25.849Z,8.25
2022-10-23T10:29:55.166Z,8.20
2022-10-23T10:35:04.821Z,8.30
2022-10-23T10:40:23.768Z,8.70
2022-10-23T10:46:03.171Z,7.63
2022-10-23T10:51:12.334Z,7.85
2022-10-23T10:56:25.205Z,8.50
2022-10-23T11:01:57.065Z,8.13
2022-10-23T11:07:02.311Z,7.57
2022-10-23T11:12:04.293Z,8.18
2022-10-23T11:17:14.299Z,8.10
2022-10-23T11:22:26.204Z,8.57
2022-10-23T11:27:46.273Z,7.78
2022-10-23T11:33:25.399Z,7.95
2022-10-23T11:38:31.869Z,7.20
2022-10-23T11:43:46.775Z,7.65
2022-10-23T11:48:49.199Z,7.88
2022-10-23T11:53:50.790Z,7.38
2022-10-23T11:58:56.431Z,8.18
2022-10-23T12:04:17.795Z,8.27
2022-10-23T12:09:30.551Z,8.30
2022-10-23T12:14:49.642Z,7.72
2022-10-23T12:19:52.923Z,8.18
2022-10-23T12:25:04.096Z,7.30
2022-10-23T12:30:21.237Z,7.65
2022-10-23T12:35:48.977Z,6.63
2022-10-23T12:41:00.464Z,7.03
2022-10-23T12:46:22.288Z,6.68
2022-10-23T12:51:27.285Z,5.97
2022-10-23T12:56:35.559Z,6.53
2022-10-23T13:06:44.970Z,6.65
2022-10-23T13:11:46.765Z,6.05
2022-10-23T13:16:59.314Z,7.15
2022-10-23T13:22:18.826Z,6.68
2022-10-23T13:27:33.425Z,6.50
2022-10-23T13:32:36.635Z,6.70
2022-10-23T13:37:38.277Z,7.28
2022-10-23T13:42:39.929Z,7.05
2022-10-23T13:47:42.090Z,6.90
2022-10-23T13:52:44.245Z,7.50
2022-10-23T13:57:46.077Z,7.35
2022-10-23T14:02:48.115Z,7.25
2022-10-23T14:07:49.786Z,7.18
2022-10-23T14:12:54.834Z,6.95
2022-10-23T14:17:59.089Z,7.55
2022-10-23T14:23:03.308Z,7.38
2022-10-23T14:28:05.162Z,7.25
2022-10-23T14:33:06.785Z,7.25
2022-10-23T14:38:08.417Z,7.10
2022-10-23T14:43:10.205Z,8.05
2022-10-23T14:48:11.852Z,7.03
2022-10-23T14:53:14.083Z,6.60
2022-10-23T14:58:15.923Z,6.28
2022-10-23T15:03:18.647Z,7.40
2022-10-23T15:08:22.060Z,7.03
2022-10-23T15:13:23.754Z,6.72
2022-10-23T15:18:27.381Z,6.28
2022-10-23T15:23:29.333Z,6.05
2022-10-23T15:28:32.185Z,6.88
2022-10-23T15:33:34.002Z,6.70
2022-10-23T15:38:35.613Z,7.32
2022-10-23T15:43:37.333Z,6.55
2022-10-23T15:48:39.054Z,7.15
2022-10-23T15:53:40.654Z,6.47
2022-10-23T15:58:42.422Z,6.50
2022-10-23T16:03:45.497Z,7.57
2022-10-23T16:08:47.601Z,7.03
2022-10-23T16:13:49.935Z,5.93
2022-10-23T16:18:53.877Z,6.18
2022-10-23T16:23:57.323Z,5.97
2022-10-23T16:29:02.089Z,5.85
2022-10-23T16:34:05.506Z,5.80
2022-10-23T16:39:09.653Z,5.75
2022-10-23T16:44:31.190Z,5.55
2022-10-23T16:49:35.194Z,5.43
2022-10-23T16:54:37.033Z,6.13
2022-10-23T16:59:38.672Z,5.43
2022-10-23T17:04:40.569Z,5.20
2022-10-23T17:09:44.530Z,6.28
2022-10-23T17:14:46.374Z,6.38
2022-10-23T17:19:48.228Z,7.57
2022-10-23T17:24:52.954Z,5.93
2022-10-23T17:29:55.851Z,7.75
2022-10-23T17:34:57.529Z,8.30
2022-10-23T17:40:02.640Z,5.43
2022-10-23T17:45:04.801Z,3.45
2022-10-23T17:50:09.514Z,3.35
2022-10-23T17:55:11.144Z,3.75
2022-10-23T18:00:13.070Z,3.70
2022-10-23T18:05:14.656Z,2.92
2022-10-23T18:10:16.297Z,3.08
2022-10-23T18:15:18.020Z,2.50
2022-10-23T18:20:19.723Z,2.70
2022-10-23T18:25:21.439Z,2.47
2022-10-23T18:30:23.275Z,2.72
2022-10-23T18:35:25.400Z,2.05
2022-10-23T18:40:28.085Z,2.55
2022-10-23T18:45:31.795Z,2.92
2022-10-23T18:50:37.502Z,3.05
2022-10-23T18:55:46.199Z,4.35
2022-10-23T19:00:47.896Z,3.08
2022-10-23T19:05:51.614Z,2.00
2022-10-23T19:10:53.509Z,2.60
2022-10-23T19:15:56.218Z,2.30
2022-10-23T19:20:59.533Z,2.30
2022-10-23T19:26:04.795Z,2.40
2022-10-23T19:31:08.213Z,2.28
2022-10-23T19:36:14.106Z,2.25
2022-10-23T19:41:18.615Z,2.13
2022-10-23T19:46:20.283Z,4.43
2022-10-23T19:51:22.070Z,2.97
2022-10-23T19:56:24.443Z,3.08
2022-10-23T20:01:27.085Z,6.45
2022-10-23T20:06:34.864Z,4.10
2022-10-23T20:11:38.467Z,4.40
2022-10-23T20:16:40.074Z,3.45
2022-10-23T20:21:44.349Z,3.15
2022-10-23T20:26:49.029Z,2.90
2022-10-23T20:31:53.006Z,2.28
2022-10-23T20:36:54.671Z,3.10
2022-10-23T20:41:58.439Z,2.95
2022-10-23T20:47:00.509Z,2.30
2022-10-23T20:52:03.414Z,2.22
2022-10-23T20:57:05.085Z,2.85
2022-10-23T21:02:07.453Z,2.88
2022-10-23T21:07:10.803Z,3.20
2022-10-23T21:12:13.054Z,3.88
2022-10-23T21:17:17.296Z,4.03
2022-10-23T21:22:19.145Z,2.63
2022-10-23T21:27:21.756Z,2.60
2022-10-23T21:32:23.599Z,3.78
2022-10-23T21:37:25.553Z,3.30
2022-10-23T21:42:27.269Z,3.50
2022-10-23T21:47:29.456Z,2.67
2022-10-23T21:52:31.376Z,2.72
2022-10-23T21:57:34.201Z,2.60
2022-10-23T22:02:36.399Z,3.03
2022-10-23T22:07:38.126Z,2.25
2022-10-23T22:12:40.213Z,2.50
2022-10-23T22:17:42.023Z,2.30
2022-10-23T22:22:43.870Z,2.38
2022-10-23T22:27:45.675Z,2.50
2022-10-23T22:32:47.753Z,2.35
2022-10-23T22:37:50.379Z,2.25
2022-10-23T22:42:52.005Z,1.90
2022-10-23T22:47:53.806Z,2.22
2022-10-23T22:52:55.999Z,2.17
2022-10-23T22:57:57.638Z,2.05
2022-10-23T23:02:59.826Z,1.80
2022-10-23T23:08:01.614Z,1.92
2022-10-23T23:13:03.547Z,1.70
2022-10-23T23:18:05.237Z,1.77
2022-10-23T23:23:08.066Z,1.35
2022-10-23T23:28:12.386Z,1.27
2022-10-23T23:33:16.489Z,1.38
2022-10-23T23:38:19.488Z,1.45
2022-10-23T23:43:21.311Z,1.25
2022-10-23T23:48:23.400Z,1.20
2022-10-23T23:53:25.189Z,2.15
2022-10-23T23:58:27.002Z,1.10
